Zaandam, Netherlands
Current Conditions -  °F | °C
As of 7:25 PM on Thursday 29 Jan 2015 (Local Time) from EHAM Reporting Station
Thunderstorm Thunderstorm  
Wind Chill: 30°   Ceiling: Unl
Heat Index: 36°   Visibility: 6mi
Dew Point: 34°   Wind: 7mph
Humidity: 93%   Direction: 150°SSE
Pressure: 28.73"   Gusts: NA
Location:  52.44°N, 4.83°E
Report Text: EHAM 291825Z 15006KT 9999 TS FEW010 FEW021CB 02/01 Q0973 RETSTEMPO 5000 SHSNRAGS
Loading
Personal Weather Stations






























Interactive Weather Map New forecast layout! Learn more

10-Day Weather Forecast

Advertisements
Track Severe Weather on mobile